Share

Walnut Ridge, AR

Walnut Ridge Regional (KARG) Elev 272 ft | 36.12 °N, 90.93 °W | Change Station

Current weather conditions updated 14 minutes ago

Clear
Clear
45 °F
Feels Like 41 °F
N
6
Wind Variable Wind from SSE
Sunrise 6:27 AM
Sunset 7:39 PM
Moon Waning Gibbous

Today is forecast to be Much Warmer than yesterday.

Pressure 30.16 in
Visibility 10.0 miles
Clouds Clear
Windchill 41 °F
Dew Point 36 °F
Humidity 71%
Rainfall 0.00 in
Snow Depth Not available.
UV 0 out of 16
Pollen 9.50 out of 12
Air Quality Not available.
Flu Activity Sporadic
METAR KARG 170455Z AUTO 16005KT 10SM CLR 07/02 A3016 RMK AO1

More Conditions Fewer Conditions

Pressure 30.16 in
Visibility 10.0 miles
Clouds Clear
Windchill 41 °F
Dew Point 36 °F
Humidity 71%
Rainfall 0.00 in
Snow Depth Not available.
UV 0 out of 16
Pollen 9.50 out of 12
Air Quality Not available.
Flu Activity Sporadic
METAR KARG 170455Z AUTO 16005KT 10SM CLR 07/02 A3016 RMK AO1

More Conditions Fewer Conditions

10-Day Forecast

Almanac

Astronomy

Apr. 17, 2014 Rise Set
Actual Time 6:27 AM CDT 7:39 PM CDT
Civil Twilight 6:01 AM CDT 8:05 PM CDT
Nautical Twilight 5:29 AM CDT 8:37 PM CDT
Astronomical Twilight 4:56 AM CDT 9:10 PM CDT
Moon 10:21 PM CDT 8:02 AM CDT
Length of Visible Light 14h 04m
Length of Day
13h 11m
Tomorrow will be 2m 9s longer.
Waning Gibbous, 96% of the Moon is Illuminated
Today
Waning Gibbous
Apr 22
Last Quarter
Apr 29
New
May 6
First Quarter
May 14
Full

Today's Extremes

State Highs State Lows

Community

  • symphony in blue....
    symphony in blue....
  • Dawn Surprise
    Dawn Surprise
  • Yucca delight
    Yucca delight
  • Sunset inside of the Ocean
    Sunset inside of the Ocean
  • Lunar eclipse 15 April 2014
    Lunar eclipse 15 April 2014

WunderPhotos

Upload Photos

1,701,858 photos uploaded!

WunderBlogs® & News

Nearby

Snow Depth

Station Depth Elevation
No new snow has been reported.

Coastal Water Temperatures

Place Temperature
No Stations Reporting

Earthquake Activity

City Distance Mag. Time & Date
No recent earthquake activity has been reported nearby.
Minimum magnitude displayed is 2.5.

Nearby Weather Stations

Station Location Temp. Windchill Dew Point Humidity Wind Precip. Elev Updated Type
Rural Ravenden Springs, Ravenden Springs, AR 44.2 °F 44 °F 16 °F 31% WSW  at  0.0 mph 0.00 in / hr 577 ft 12:09 AM CDT Rapid Fire
MesoWest KNOBEL , Peach Orchard, AR 43 °F 43 °F - - North  at  - 0.00 in / hr 290 ft 10:45 PM CDT MADIS
MesoWest JNSBRO , Jonesboro, AR 45 °F 45 °F - - North  at  - 0.00 in / hr 285 ft 11:00 PM CDT MADIS
MesoWest BETHEL , Brookland, AR 40 °F 40 °F - - North  at  - 0.00 in / hr 288 ft 11:05 PM CDT MADIS
Near AMMC Hospital, Paragould, AR 45.1 °F 45 °F 39 °F 80% NW  at  0.0 mph 0.00 in / hr 338 ft 12:09 AM CDT Rapid Fire

Show More Stations Show Fewer Stations

What do you think?

We're not finished. Please let us know what you like, what you don't like, and what you are still missing.